Terminal Aerodrome Forecast
Issued by NWS

Home | Current Version | Previous Version | Text Only | Print | Product List | Glossary Off
Versions: 1 2 3 4 5 6 7 8 9 10 11 12 13

000
FTUS43 KLSX 111100
TAFUIN
TAF
KUIN 111120Z 1112/1212 13006KT P6SM BKN250
     FM111500 16011KT P6SM SCT040 BKN250
     FM120000 14007KT P6SM SCT060 BKN150=

USA.gov is the U.S. government's official web portal to all federal, state and local government web resources and services.